Latest Weather Observations for Alva Beach

IDQ60801

Issued at 10:05 am EST Tuesday 23 September 2014 (issued every 30 minutes, with the page automatically refreshed every 10 minutes)

About weather observations | Map of weather stations | Latest weather observations for QLD | Other Formats
Station Details ID: 033295 Name: ALVA BEACH Lat: -19.46 Lon: 147.48 Height: 7.5 m
Data from the previous 72 hours. | See also: Recent months at Alva Beach
Date/Time
EST
Temp
°C
App
Temp
°C
Dew
Point
Rel
Hum
%
Delta-T
°C
Wind Press
QNH
hPa
Press
MSL
hPa
Rain
since 9 am
mm
Dir
 
Spd
km/h
Gust
km/h
Spd
kts
Gust
kts
23/10:00am 24.8 24.0 18.0 66 4.3 ESE 19 28 10 15 1020.0 1020.0 0.0
23/09:30am 23.9 22.8 17.4 67 4.0 ESE 19 32 10 17 1020.1 1020.1 0.0
23/09:00am 23.5 22.2 17.3 68 3.8 ESE 20 33 11 18 1020.2 1020.2 0.0
23/08:30am 22.2 20.0 16.9 72 3.2 SE 24 33 13 18 1019.9 1019.9 0.0
23/08:00am 22.2 22.2 17.3 74 3.0 SSE 13 24 7 13 1019.7 1019.7 0.0
23/07:30am 20.3 19.8 15.9 76 2.6 S 13 26 7 14 1019.3 1019.3 0.0
23/07:00am 20.3 19.7 15.7 75 2.7 S 13 20 7 11 1018.8 1018.8 0.0
23/06:30am 19.9 20.1 16.7 82 1.9 SSE 11 22 6 12 1018.4 1018.4 0.0
23/06:00am 20.3 19.0 16.7 80 2.2 SE 19 28 10 15 1018.0 1018.0 0.0
23/05:30am 20.3 18.8 16.7 80 2.2 SE 20 32 11 17 1017.7 1017.7 0.0
23/05:00am 20.3 18.9 16.9 81 2.1 ESE 20 35 11 19 1017.2 1017.2 0.0
23/04:30am 20.1 18.8 16.7 81 2.1 ESE 19 30 10 16 1017.1 1017.1 0.0
23/04:00am 20.2 18.6 16.6 80 2.2 ESE 20 32 11 17 1017.0 1017.0 0.0
23/03:30am 20.2 18.6 16.6 80 2.2 ESE 20 32 11 17 1016.8 1016.8 0.0
23/03:00am 20.3 18.7 16.5 79 2.3 ESE 20 30 11 16 1016.8 1016.8 0.0
23/02:30am 20.4 18.8 16.4 78 2.4 ESE 20 32 11 17 1017.0 1017.0 0.0
23/02:00am 20.4 19.0 16.6 79 2.3 ESE 19 28 10 15 1017.2 1017.2 0.0
23/01:30am 20.5 18.4 16.3 77 2.5 SE 22 33 12 18 1017.5 1017.5 0.0
23/01:00am 20.5 18.5 16.5 78 2.4 SE 22 35 12 19 1017.8 1017.8 0.0
23/12:30am 20.5 18.2 16.7 79 2.3 SE 24 37 13 20 1018.2 1018.2 0.0
23/12:00am 20.9 19.2 17.1 79 2.3 ESE 22 35 12 19 1018.3 1018.3 0.0
 
Date/Time
EST
Temp
°C
App
Temp
°C
Dew
Point
Rel
Hum
%
Delta-T
°C
Wind Press
QNH
hPa
Press
MSL
hPa
Rain
since 9 am
mm
Dir
 
Spd
km/h
Gust
km/h
Spd
kts
Gust
kts
22/11:30pm 21.0 19.3 17.2 79 2.3 ESE 22 35 12 19 1018.5 1018.5 0.0
22/11:00pm 21.2 19.6 17.4 79 2.3 ESE 22 37 12 20 1018.8 1018.8 0.0
22/10:30pm 21.4 19.9 17.6 79 2.3 ESE 22 35 12 19 1018.7 1018.7 0.0
22/10:00pm 21.7 20.8 17.7 78 2.5 ESE 19 30 10 16 1018.7 1018.7 0.0
22/09:30pm 22.5 19.2 17.0 71 3.4 E 30 39 16 21 1018.6 1018.6 0.0
22/09:00pm 22.5 19.6 17.0 71 3.4 E 28 35 15 19 1018.8 1018.8 0.0
22/08:30pm 22.4 20.7 17.1 72 3.3 E 22 32 12 17 1018.6 1018.6 0.0
22/08:00pm 22.6 21.0 17.5 73 3.1 E 22 32 12 17 1018.2 1018.2 0.0
22/07:30pm 22.4 21.0 17.1 72 3.3 E 20 30 11 16 1017.9 1017.9 0.0
22/07:00pm 22.0 21.3 17.4 75 2.8 ESE 17 24 9 13 1017.5 1017.5 0.0
22/06:30pm 22.0 20.3 17.2 74 2.9 E 22 30 12 16 1016.9 1016.9 0.0
22/06:00pm 22.1 20.7 17.0 73 3.1 ESE 20 30 11 16 1016.7 1016.7 0.0
22/05:30pm 22.3 20.7 16.6 70 3.5 ESE 20 35 11 19 1016.6 1016.6 0.0
22/05:00pm 23.3 21.9 17.1 68 3.8 ESE 20 33 11 18 1016.4 1016.4 0.0
22/04:30pm 24.0 22.0 16.5 63 4.6 E 22 32 12 17 1016.2 1016.2 0.0
22/04:00pm 24.0 22.0 17.3 66 4.1 E 24 33 13 18 1015.8 1015.8 0.0
22/03:30pm 23.7 21.8 16.7 65 4.3 E 22 30 12 16 1016.0 1016.0 0.0
22/03:00pm 24.2 21.9 15.7 59 5.1 E 22 30 12 16 1015.9 1015.9 0.0
22/02:30pm 24.9 22.6 15.8 57 5.5 E 22 28 12 15 1015.9 1015.9 0.0
22/02:00pm 24.7 22.6 15.3 56 5.7 E 20 28 11 15 1016.3 1016.3 0.0
22/01:30pm 25.3 23.7 16.4 57 5.5 E 20 30 11 16 1016.6 1016.6 0.0
22/01:00pm 25.4 23.5 15.7 55 5.9 E 20 28 11 15 1016.9 1016.9 0.0
22/12:30pm 25.2 23.2 15.5 55 5.9 E 20 26 11 14 1017.3 1017.3 0.0
22/12:00pm 25.1 22.4 15.7 56 5.7 E 24 32 13 17 1017.6 1017.6 0.0
22/11:30am 25.2 22.5 15.5 55 5.9 ENE 24 30 13 16 1018.2 1018.2 0.0
22/11:00am 25.1 22.0 15.7 56 5.7 ENE 26 32 14 17 1018.4 1018.4 0.0
22/10:30am 25.0 21.0 16.2 58 5.4 ENE 32 37 17 20 1018.4 1018.4 0.0
22/10:00am 25.2 22.2 16.9 60 5.1 ENE 28 32 15 17 1018.7 1018.7 0.0
22/09:30am 24.7 21.3 16.7 61 4.9 ENE 30 33 16 18 1018.7 1018.7 0.0
22/09:00am 24.4 20.9 16.6 61 4.8 ENE 30 35 16 19 1018.6 1018.6 0.0
22/08:30am 23.6 19.7 16.4 64 4.4 ENE 32 37 17 20 1018.3 1018.3 0.0
22/08:00am 23.1 19.1 16.2 65 4.2 ENE 32 37 17 20 1018.3 1018.3 0.0
22/07:30am 22.9 18.7 16.2 66 4.1 ENE 33 39 18 21 1017.8 1017.8 0.0
22/07:00am 22.7 18.3 16.7 69 3.7 ENE 35 43 19 23 1017.3 1017.3 0.0
22/06:30am 22.3 17.6 15.9 67 3.9 ENE 35 43 19 23 1017.0 1017.0 0.0
22/06:00am 22.2 18.0 15.8 67 3.8 E 32 44 17 24 1016.7 1016.7 0.0
22/05:30am 22.1 18.2 16.4 70 3.5 E 32 39 17 21 1016.5 1016.5 0.0
22/05:00am 22.0 17.8 15.8 68 3.7 E 32 39 17 21 1016.3 1016.3 0.0
22/04:30am 21.9 17.6 16.0 69 3.6 E 33 43 18 23 1016.0 1016.0 0.0
22/04:00am 22.0 18.2 15.8 68 3.7 E 30 41 16 22 1015.9 1015.9 0.0
22/03:30am 22.0 18.7 16.1 69 3.6 E 28 37 15 20 1016.3 1016.3 0.0
22/03:00am 21.9 18.4 15.5 67 3.8 E 28 37 15 20 1016.5 1016.5 0.0
22/02:30am 21.9 17.7 15.7 68 3.7 E 32 41 17 22 1016.6 1016.6 0.0
22/02:00am 22.0 18.5 15.4 66 3.9 E 28 39 15 21 1017.1 1017.1 0.0
22/01:30am 21.2 18.8 16.4 74 2.9 E 24 35 13 19 1017.3 1017.3 0.0
22/01:00am 21.8 20.4 17.0 74 2.9 E 20 33 11 18 1017.6 1017.6 0.0
22/12:30am 21.8 19.7 16.3 71 3.3 E 22 32 12 17 1018.1 1018.1 0.0
22/12:00am 22.2 19.7 16.2 69 3.6 E 24 33 13 18 1018.5 1018.5 0.0
 
Date/Time
EST
Temp
°C
App
Temp
°C
Dew
Point
Rel
Hum
%
Delta-T
°C
Wind Press
QNH
hPa
Press
MSL
hPa
Rain
since 9 am
mm
Dir
 
Spd
km/h
Gust
km/h
Spd
kts
Gust
kts
21/11:30pm 22.2 18.8 16.7 71 3.4 E 30 41 16 22 1018.1 1018.1 0.0
21/11:00pm 22.2 18.4 15.8 67 3.8 E 30 43 16 23 1018.6 1018.6 0.0
21/10:30pm 22.4 19.4 16.7 70 3.5 E 28 39 15 21 1019.1 1019.1 0.0
21/10:00pm 22.4 18.5 16.4 69 3.6 E 32 41 17 22 1018.9 1018.9 0.0
21/09:30pm 22.5 18.6 16.5 69 3.7 E 32 43 17 23 1018.6 1018.6 0.0
21/09:00pm 22.4 19.2 16.4 69 3.6 E 28 37 15 20 1018.6 1018.6 0.0
21/08:30pm 22.5 19.2 16.1 67 3.9 E 28 37 15 20 1018.7 1018.7 0.0
21/08:00pm 22.3 19.0 16.1 68 3.7 E 28 39 15 21 1018.4 1018.4 0.0
21/07:30pm 22.4 19.0 16.7 70 3.5 E 30 37 16 20 1018.1 1018.1 0.0
21/07:00pm 22.4 18.4 16.2 68 3.7 E 32 41 17 22 1017.7 1017.7 0.0
21/06:30pm 22.5 19.2 17.0 71 3.4 E 30 41 16 22 1017.2 1017.2 0.0
21/06:00pm 22.7 18.9 16.7 69 3.7 E 32 43 17 23 1016.9 1016.9 0.0
21/05:30pm 22.7 20.0 16.7 69 3.7 E 26 37 14 20 1017.1 1017.1 0.0
21/05:00pm 22.9 19.6 16.9 69 3.7 E 30 39 16 21 1016.9 1016.9 0.0
21/04:30pm 23.1 20.1 16.9 68 3.8 E 28 35 15 19 1016.9 1016.9 0.0
21/04:00pm 23.4 20.6 16.4 64 4.3 E 26 35 14 19 1017.1 1017.1 0.0
21/03:30pm 24.0 21.6 16.5 63 4.6 E 24 37 13 20 1017.3 1017.3 0.0
21/03:00pm 24.0 22.2 17.0 65 4.3 E 22 30 12 16 1017.3 1017.3 0.0
21/02:30pm 24.3 22.5 16.0 60 5.0 E 20 30 11 16 1017.5 1017.5 0.0
21/02:00pm 24.3 22.0 15.8 59 5.1 E 22 30 12 16 1017.5 1017.5 0.0
21/01:30pm 24.7 22.3 16.4 60 5.1 E 24 33 13 18 1017.6 1017.6 0.0
21/01:00pm 24.8 22.6 16.8 61 4.9 E 24 32 13 17 1017.9 1017.9 0.0
21/12:30pm 24.7 22.4 16.7 61 4.9 E 24 32 13 17 1018.1 1018.1 0.0
21/12:00pm 25.4 23.4 17.3 61 5.0 E 24 35 13 19 1018.3 1018.3 0.0
21/11:30am 24.6 22.3 16.6 61 4.9 E 24 35 13 19 1018.7 1018.7 0.0
21/11:00am 25.0 22.6 18.2 66 4.3 E 28 39 15 21 1018.9 1018.9 0.0
21/10:30am 24.8 21.6 17.3 63 4.7 E 30 41 16 22 1018.6 1018.6 0.0
21/10:00am 24.2 22.1 17.2 65 4.3 E 24 35 13 19 1019.2 1019.2 0.0
21/09:30am 23.7 21.7 17.4 68 3.9 E 24 32 13 17 1019.2 1019.2 0.0
21/09:00am 24.0 22.6 18.0 69 3.8 E 22 32 12 17 1019.0 1019.0 0.0
21/08:30am 23.2 21.4 17.9 72 3.3 E 24 32 13 17 1018.7 1018.7 0.0
21/08:00am 22.9 21.9 18.0 74 3.1 E 20 30 11 16 1018.4 1018.4 0.0
21/07:30am 22.5 21.0 17.6 74 3.0 E 22 30 12 16 1018.2 1018.2 0.0
21/07:00am 22.2 20.8 18.0 77 2.6 E 22 32 12 17 1017.8 1017.8 0.0
21/06:30am 22.0 20.8 17.6 76 2.7 E 20 28 11 15 1017.6 1017.6 0.0
21/06:00am 22.0 21.2 18.0 78 2.5 E 19 28 10 15 1017.2 1017.2 0.0
21/05:30am 21.8 20.8 17.6 77 2.6 E 19 26 10 14 1016.9 1016.9 0.0
21/05:00am 21.8 20.8 17.6 77 2.6 E 19 30 10 16 1016.6 1016.6 0.0
21/04:30am 21.8 20.5 17.2 75 2.8 E 20 28 11 15 1016.3 1016.3 0.0
21/04:00am 21.8 20.5 17.2 75 2.8 E 20 28 11 15 1016.2 1016.2 0.0
21/03:30am 21.7 20.3 17.1 75 2.8 E 20 26 11 14 1016.0 1016.0 0.0
21/03:00am 21.8 20.5 17.2 75 2.8 E 20 28 11 15 1016.1 1016.1 0.0
21/02:30am 21.6 20.7 16.8 74 2.9 E 17 24 9 13 1016.4 1016.4 0.0
21/02:00am 21.8 21.0 17.2 75 2.8 E 17 22 9 12 1016.7 1016.7 0.0
21/01:30am 22.0 20.8 17.4 75 2.8 E 20 28 11 15 1017.1 1017.1 0.0
21/01:00am 22.2 21.0 17.6 75 2.8 E 20 28 11 15 1017.6 1017.6 0.0
21/12:30am 22.2 20.9 17.3 74 3.0 E 20 32 11 17 1017.9 1017.9 0.0
21/12:00am 22.3 20.8 17.7 75 2.8 E 22 30 12 16 1018.1 1018.1 0.0
 
Date/Time
EST
Temp
°C
App
Temp
°C
Dew
Point
Rel
Hum
%
Delta-T
°C
Wind Press
QNH
hPa
Press
MSL
hPa
Rain
since 9 am
mm
Dir
 
Spd
km/h
Gust
km/h
Spd
kts
Gust
kts
20/11:30pm 22.5 21.0 17.6 74 3.0 E 22 30 12 16 1018.1 1018.1 0.0
20/11:00pm 22.5 20.6 17.6 74 3.0 E 24 30 13 16 1018.0 1018.0 0.0
20/10:30pm 22.5 20.5 17.4 73 3.1 E 24 32 13 17 1018.1 1018.1 0.0
20/10:00pm 22.6 20.6 17.5 73 3.1 E 24 33 13 18 1018.1 1018.1 0.0
20/09:30pm 22.4 20.3 17.1 72 3.3 ENE 24 32 13 17 1018.0 1018.0 0.0
20/09:00pm 22.4 19.9 17.1 72 3.2 ENE 26 32 14 17 1017.8 1017.8 0.0
20/08:30pm 22.6 20.3 17.5 73 3.2 ENE 26 32 14 17 1017.6 1017.6 0.0
20/08:00pm 22.7 20.5 17.8 74 3.0 ENE 26 33 14 18 1017.2 1017.2 0.0
20/07:30pm 22.8 19.3 16.6 68 3.8 ENE 30 33 16 18 1016.9 1016.9 0.0
20/07:00pm 22.9 20.6 16.7 68 3.8 ENE 24 28 13 15 1016.5 1016.5 0.0
20/06:30pm 22.8 21.3 16.8 69 3.7 ENE 20 24 11 13 1015.9 1015.9 0.0
20/06:00pm 22.9 21.5 16.9 69 3.7 NE 20 22 11 12 1015.0 1015.0 0.0
20/05:30pm 22.9 21.5 16.9 69 3.7 NE 20 24 11 13 1014.5 1014.5 0.0
20/05:00pm 23.1 21.0 16.2 65 4.2 NE 22 26 12 14 1014.2 1014.2 0.0
20/04:30pm 23.3 21.0 16.6 66 4.1 NE 24 28 13 15 1013.7 1013.7 0.0
20/04:00pm 23.6 22.0 16.6 65 4.3 NE 20 24 11 13 1013.6 1013.6 0.0
20/03:30pm 23.9 22.7 17.4 67 4.0 NNE 20 24 11 13 1013.6 1013.6 0.0
20/03:00pm 23.8 22.8 18.0 70 3.6 NE 20 24 11 13 1013.6 1013.6 0.0
20/02:30pm 24.4 23.5 18.3 69 3.8 NE 20 26 11 14 1013.9 1013.9 0.0
20/02:00pm 24.2 22.3 17.7 67 4.1 NE 24 28 13 15 1014.3 1014.3 0.0
20/01:30pm 24.4 23.2 17.4 65 4.4 NE 20 24 11 13 1014.9 1014.9 0.0
20/01:00pm 24.8 23.6 17.5 64 4.5 NE 20 24 11 13 1015.4 1015.4 0.0
20/12:30pm 24.6 23.7 17.8 66 4.3 NE 19 22 10 12 1015.9 1015.9 0.0
20/12:00pm 25.0 24.2 17.2 62 4.8 ENE 17 20 9 11 1016.6 1016.6 0.0
20/11:30am 24.9 24.1 17.1 62 4.8 NE 17 20 9 11 1017.1 1017.1 0.0
20/11:00am 24.6 24.0 16.6 61 4.9 ENE 15 19 8 10 1017.5 1017.5 0.0
20/10:30am 24.3 23.9 17.1 64 4.5 ENE 15 17 8 9 1018.0 1018.0 0.0

Other Formats:

Comma delimited format used in spreadsheet applications
http://www.bom.gov.au/fwo/IDQ60801/IDQ60801.95296.axf

JavaScript Object Notation format (JSON) in row-major order
http://www.bom.gov.au/fwo/IDQ60801/IDQ60801.95296.json